Time;durP1;ratioP1;P1;durP2;ratioP2;P2;SDS_P1;SDS_P2;PMS_P1;PMS_P2;Temp;Humidity;BMP_temperature;BMP_pressure;BME280_temperature;BME280_humidity;BME280_pressure;Samples;Min_cycle;Max_cycle;Signal;HPM_P1;HPM_P2
2024/02/29 00:01:57;;;;;;;227.67;63.53;;;;;;;;;;4992276;28;20202;-44
2024/02/29 00:04:25;;;;;;;227.87;65.87;;;;;;;;;;4993114;28;20414;-44
2024/02/29 00:06:52;;;;;;;228.55;64.80;;;;;;;;;;4992743;28;20927;-44
2024/02/29 00:09:18;;;;;;;229.63;65.95;;;;;;;;;;4993238;28;20203;-44
2024/02/29 00:11:44;;;;;;;227.30;64.82;;;;;;;;;;4992774;28;20251;-44
2024/02/29 00:14:10;;;;;;;226.60;64.80;;;;;;;;;;4992885;28;20590;-44
2024/02/29 00:16:36;;;;;;;225.97;64.60;;;;;;;;;;4992654;28;20415;-44
2024/02/29 00:19:02;;;;;;;228.43;66.60;;;;;;;;;;4992782;28;20778;-44
2024/02/29 00:21:29;;;;;;;226.32;64.20;;;;;;;;;;4992705;28;20233;-44
2024/02/29 00:23:55;;;;;;;226.98;64.18;;;;;;;;;;4992696;28;20177;-44
2024/02/29 00:26:23;;;;;;;229.77;66.80;;;;;;;;;;4992253;28;20190;-44
2024/02/29 00:28:49;;;;;;;229.38;65.97;;;;;;;;;;4992554;28;20832;-44
2024/02/29 00:31:15;;;;;;;228.63;66.07;;;;;;;;;;4987641;28;20200;-45
2024/02/29 00:33:41;;;;;;;226.03;63.50;;;;;;;;;;4989719;28;20867;-44
2024/02/29 00:36:07;;;;;;;227.95;64.20;;;;;;;;;;4988388;28;20497;-44
2024/02/29 00:38:33;;;;;;;229.20;65.38;;;;;;;;;;4988869;28;20183;-45
2024/02/29 00:40:59;;;;;;;227.57;65.13;;;;;;;;;;4984159;28;20199;-45
2024/02/29 00:43:25;;;;;;;227.37;64.93;;;;;;;;;;4992391;28;20442;-44
2024/02/29 00:45:52;;;;;;;226.65;65.68;;;;;;;;;;4984008;28;20410;-43
2024/02/29 00:48:18;;;;;;;229.52;66.75;;;;;;;;;;4992233;28;20183;-44
2024/02/29 00:50:43;;;;;;;226.10;64.57;;;;;;;;;;4992227;28;20214;-44
2024/02/29 00:53:09;;;;;;;228.13;66.00;;;;;;;;;;4992256;28;20457;-45
2024/02/29 00:55:35;;;;;;;227.30;64.05;;;;;;;;;;4983924;28;20421;-44
2024/02/29 00:58:01;;;;;;;226.73;64.20;;;;;;;;;;4989144;28;20272;-44
2024/02/29 01:00:27;;;;;;;227.53;64.43;;;;;;;;;;4987251;28;20471;-44
2024/02/29 01:02:53;;;;;;;228.27;66.03;;;;;;;;;;4984008;28;20444;-44
2024/02/29 01:05:19;;;;;;;227.80;66.40;;;;;;;;;;4991730;28;20418;-44
2024/02/29 01:07:45;;;;;;;225.77;63.17;;;;;;;;;;4991879;28;20425;-44
2024/02/29 01:10:11;;;;;;;225.97;65.40;;;;;;;;;;4991713;28;20835;-44
2024/02/29 01:12:47;;;;;;;226.60;64.03;;;;;;;;;;4983981;28;20987;-44
2024/02/29 01:15:13;;;;;;;230.63;67.10;;;;;;;;;;4973765;28;20170;-44
2024/02/29 01:17:40;;;;;;;225.07;63.72;;;;;;;;;;4988619;28;20183;-45
2024/02/29 01:20:06;;;;;;;226.55;63.53;;;;;;;;;;4991765;28;20190;-44
2024/02/29 01:22:32;;;;;;;226.25;63.72;;;;;;;;;;4983619;28;20697;-44
2024/02/29 01:24:58;;;;;;;227.43;65.10;;;;;;;;;;4983668;28;20186;-44
2024/02/29 01:27:24;;;;;;;224.50;63.30;;;;;;;;;;4991514;28;20415;-44
2024/02/29 01:29:50;;;;;;;227.53;65.37;;;;;;;;;;4991553;28;20916;-45
2024/02/29 01:32:16;;;;;;;225.97;64.53;;;;;;;;;;4978576;28;20504;-43
2024/02/29 01:34:42;;;;;;;226.23;63.60;;;;;;;;;;4988632;28;20427;-44
2024/02/29 01:37:08;;;;;;;225.13;64.27;;;;;;;;;;4982968;28;20467;-44
2024/02/29 01:39:34;;;;;;;225.57;63.43;;;;;;;;;;4991755;28;20818;-44
2024/02/29 01:42:00;;;;;;;226.82;65.03;;;;;;;;;;4979762;28;20440;-44
2024/02/29 01:44:27;;;;;;;225.65;63.80;;;;;;;;;;4978667;28;20201;-44
2024/02/29 01:46:53;;;;;;;226.57;64.35;;;;;;;;;;4991083;28;20173;-44
2024/02/29 01:49:19;;;;;;;226.85;64.40;;;;;;;;;;4983914;28;20244;-44
2024/02/29 01:51:45;;;;;;;226.90;65.45;;;;;;;;;;4990945;28;20695;-44
2024/02/29 01:54:11;;;;;;;227.40;65.72;;;;;;;;;;4987050;28;20194;-44
2024/02/29 01:56:37;;;;;;;226.75;64.40;;;;;;;;;;4987521;28;20228;-44
2024/02/29 01:59:04;;;;;;;227.35;65.53;;;;;;;;;;4991665;28;20610;-44
2024/02/29 02:01:30;;;;;;;228.82;66.95;;;;;;;;;;4991075;28;20209;-44
2024/02/29 02:03:56;;;;;;;225.52;63.97;;;;;;;;;;4990941;28;20192;-44
2024/02/29 02:06:22;;;;;;;225.80;64.10;;;;;;;;;;4984562;28;20206;-43
2024/02/29 02:08:48;;;;;;;227.00;64.50;;;;;;;;;;4988619;28;20687;-44
2024/02/29 02:11:14;;;;;;;226.10;63.35;;;;;;;;;;4972404;28;20470;-44
2024/02/29 02:13:40;;;;;;;226.35;64.15;;;;;;;;;;4973035;28;20226;-44
2024/02/29 02:16:07;;;;;;;226.00;64.32;;;;;;;;;;4974964;28;20208;-44
2024/02/29 02:18:34;;;;;;;227.38;64.88;;;;;;;;;;4989112;28;20272;-44
2024/02/29 02:21:00;;;;;;;226.38;65.53;;;;;;;;;;4983725;28;20187;-43
2024/02/29 02:23:26;;;;;;;225.18;62.92;;;;;;;;;;4982881;28;20339;-44
2024/02/29 02:25:57;;;;;;;228.83;65.40;;;;;;;;;;4980810;28;20240;-44
2024/02/29 02:28:23;;;;;;;227.70;65.68;;;;;;;;;;4982222;28;20416;-44
2024/02/29 02:30:49;;;;;;;228.55;66.07;;;;;;;;;;4980822;28;20200;-44
2024/02/29 02:33:15;;;;;;;226.33;65.13;;;;;;;;;;4984112;28;20705;-44
2024/02/29 02:35:41;;;;;;;225.23;64.53;;;;;;;;;;4986627;28;20407;-44
2024/02/29 02:38:07;;;;;;;223.63;61.60;;;;;;;;;;4985650;28;20264;-44
2024/02/29 02:40:35;;;;;;;228.63;65.85;;;;;;;;;;4984627;28;20414;-44
2024/02/29 02:43:01;;;;;;;225.35;64.38;;;;;;;;;;4981993;28;20197;-45
2024/02/29 02:45:27;;;;;;;226.00;63.60;;;;;;;;;;4990423;28;20177;-44
2024/02/29 02:47:53;;;;;;;226.98;64.65;;;;;;;;;;4987742;28;20657;-44
2024/02/29 02:50:19;;;;;;;227.17;64.33;;;;;;;;;;4987811;28;20224;-44
2024/02/29 02:52:45;;;;;;;228.43;66.43;;;;;;;;;;4986001;28;20448;-44
2024/02/29 02:55:11;;;;;;;232.77;70.53;;;;;;;;;;4987420;28;20185;-45
2024/02/29 02:57:37;;;;;;;230.23;67.63;;;;;;;;;;4986059;28;20448;-44
2024/02/29 03:00:04;;;;;;;225.32;63.45;;;;;;;;;;4976961;28;20169;-45
2024/02/29 03:02:30;;;;;;;227.90;66.38;;;;;;;;;;4983667;28;20244;-44
2024/02/29 03:04:56;;;;;;;225.70;65.27;;;;;;;;;;4977761;28;20178;-44
2024/02/29 03:07:22;;;;;;;225.63;64.83;;;;;;;;;;4989108;28;20416;-45
2024/02/29 03:09:48;;;;;;;227.18;64.85;;;;;;;;;;4987178;28;20671;-44
2024/02/29 03:12:15;;;;;;;227.00;65.47;;;;;;;;;;4979283;28;20203;-45
2024/02/29 03:14:41;;;;;;;225.90;64.15;;;;;;;;;;4986771;28;20487;-44
2024/02/29 03:17:07;;;;;;;225.82;64.32;;;;;;;;;;4992956;28;20574;-45
2024/02/29 03:19:33;;;;;;;227.03;65.87;;;;;;;;;;4989511;28;20181;-45
2024/02/29 03:21:59;;;;;;;227.90;64.97;;;;;;;;;;4986780;28;20447;-44
2024/02/29 03:24:25;;;;;;;227.33;64.10;;;;;;;;;;4986134;28;20544;-45
2024/02/29 03:26:51;;;;;;;226.47;65.27;;;;;;;;;;4984182;28;20825;-44
2024/02/29 03:29:17;;;;;;;226.50;65.13;;;;;;;;;;4991003;28;20783;-45
2024/02/29 03:31:45;;;;;;;227.97;65.67;;;;;;;;;;4976834;28;21006;-44
2024/02/29 03:34:11;;;;;;;225.38;63.75;;;;;;;;;;4990964;28;20474;-44
2024/02/29 03:36:38;;;;;;;229.73;68.10;;;;;;;;;;4989255;28;20263;-44
2024/02/29 03:39:07;;;;;;;225.48;64.40;;;;;;;;;;4985219;28;20421;-44
2024/02/29 03:41:33;;;;;;;225.45;64.00;;;;;;;;;;4984473;28;20196;-45
2024/02/29 03:43:59;;;;;;;226.07;63.78;;;;;;;;;;4990160;28;20293;-45
2024/02/29 03:46:26;;;;;;;226.98;65.07;;;;;;;;;;4984616;28;20225;-44
2024/02/29 03:48:52;;;;;;;223.65;63.80;;;;;;;;;;4987031;28;20201;-45
2024/02/29 03:51:18;;;;;;;224.30;64.03;;;;;;;;;;4980584;28;20292;-44
2024/02/29 03:53:44;;;;;;;224.00;63.95;;;;;;;;;;4989155;28;20448;-44
2024/02/29 03:56:10;;;;;;;224.35;63.58;;;;;;;;;;4992535;28;20183;-44
2024/02/29 03:58:36;;;;;;;223.80;63.08;;;;;;;;;;4982492;28;20209;-44
2024/02/29 04:01:05;;;;;;;225.87;64.60;;;;;;;;;;4988385;28;20281;-44
2024/02/29 04:03:31;;;;;;;225.35;64.63;;;;;;;;;;4977584;28;20433;-44
2024/02/29 04:05:57;;;;;;;225.80;65.38;;;;;;;;;;4983629;28;20186;-44
2024/02/29 04:08:23;;;;;;;226.02;65.82;;;;;;;;;;4988575;28;20247;-44
2024/02/29 04:10:50;;;;;;;223.33;63.90;;;;;;;;;;4989802;28;20296;-44
2024/02/29 04:13:17;;;;;;;222.98;63.28;;;;;;;;;;4991648;28;20436;-44
2024/02/29 04:15:43;;;;;;;225.73;64.63;;;;;;;;;;4989441;28;20181;-44
2024/02/29 04:18:09;;;;;;;224.25;63.50;;;;;;;;;;4986968;28;20224;-44
2024/02/29 04:20:35;;;;;;;224.63;65.28;;;;;;;;;;4985228;28;20189;-44
2024/02/29 04:23:01;;;;;;;223.10;63.63;;;;;;;;;;4988239;28;20228;-44
2024/02/29 04:25:27;;;;;;;223.27;63.07;;;;;;;;;;4985183;28;20834;-44
2024/02/29 04:27:53;;;;;;;225.27;65.75;;;;;;;;;;4987707;28;20413;-45
2024/02/29 04:30:19;;;;;;;226.43;66.83;;;;;;;;;;4988937;28;20216;-44
2024/02/29 04:32:45;;;;;;;226.07;65.97;;;;;;;;;;4989282;28;20953;-44
2024/02/29 04:35:11;;;;;;;235.02;74.35;;;;;;;;;;4978567;28;20632;-44
2024/02/29 04:37:38;;;;;;;224.48;65.13;;;;;;;;;;4991271;28;20192;-44
2024/02/29 04:40:04;;;;;;;224.90;64.70;;;;;;;;;;4979027;28;20689;-44
2024/02/29 04:42:31;;;;;;;226.85;66.20;;;;;;;;;;4987781;28;20676;-44
2024/02/29 04:44:57;;;;;;;228.20;68.03;;;;;;;;;;4986012;28;20205;-44
2024/02/29 04:47:24;;;;;;;226.97;68.00;;;;;;;;;;4978644;28;20757;-44
2024/02/29 04:49:50;;;;;;;223.52;65.38;;;;;;;;;;4987705;28;20419;-45
2024/02/29 04:52:16;;;;;;;223.40;64.90;;;;;;;;;;4985294;28;20217;-44
2024/02/29 04:54:42;;;;;;;223.77;66.37;;;;;;;;;;4989068;28;20413;-44
2024/02/29 04:57:08;;;;;;;223.27;63.10;;;;;;;;;;4987985;28;20416;-44
2024/02/29 04:59:34;;;;;;;222.70;63.40;;;;;;;;;;4986376;28;20470;-44
2024/02/29 05:02:01;;;;;;;224.77;64.00;;;;;;;;;;4984426;28;20209;-45
2024/02/29 05:04:27;;;;;;;223.18;64.78;;;;;;;;;;4991189;28;20426;-44
2024/02/29 05:06:56;;;;;;;225.30;65.72;;;;;;;;;;4987495;28;20183;-44
2024/02/29 05:09:22;;;;;;;226.75;66.30;;;;;;;;;;4981862;28;20200;-44
2024/02/29 05:11:48;;;;;;;226.77;67.03;;;;;;;;;;4988797;28;20208;-44
2024/02/29 05:14:14;;;;;;;223.93;64.30;;;;;;;;;;4991872;28;20184;-44
2024/02/29 05:16:40;;;;;;;227.47;66.67;;;;;;;;;;4990225;28;20430;-45
2024/02/29 05:19:06;;;;;;;223.37;64.40;;;;;;;;;;4991894;28;20413;-44
2024/02/29 05:21:32;;;;;;;227.77;66.43;;;;;;;;;;4991569;28;20416;-44
2024/02/29 05:23:58;;;;;;;226.55;65.13;;;;;;;;;;4991857;28;20915;-45
2024/02/29 05:26:24;;;;;;;224.57;64.77;;;;;;;;;;4991378;28;20191;-44
2024/02/29 05:28:52;;;;;;;224.55;65.20;;;;;;;;;;4991520;28;20444;-44
2024/02/29 05:31:18;;;;;;;222.50;62.22;;;;;;;;;;4983244;28;20672;-45
2024/02/29 05:33:44;;;;;;;224.57;64.63;;;;;;;;;;4976892;28;20216;-44
2024/02/29 05:36:11;;;;;;;223.07;63.60;;;;;;;;;;4988550;28;20789;-44
2024/02/29 05:38:37;;;;;;;225.75;66.03;;;;;;;;;;4986754;28;20555;-44
2024/02/29 05:41:03;;;;;;;224.37;64.97;;;;;;;;;;4985373;28;20260;-45
2024/02/29 05:43:29;;;;;;;223.15;64.10;;;;;;;;;;4984674;28;20435;-44
2024/02/29 05:45:55;;;;;;;225.13;64.38;;;;;;;;;;4989086;28;20189;-44
2024/02/29 05:48:21;;;;;;;224.05;65.38;;;;;;;;;;4990756;28;20563;-45
2024/02/29 05:50:47;;;;;;;223.03;62.80;;;;;;;;;;4971370;28;20201;-44
2024/02/29 05:53:14;;;;;;;223.03;62.70;;;;;;;;;;4982158;28;20467;-45
2024/02/29 05:55:41;;;;;;;226.00;65.80;;;;;;;;;;4981824;28;20436;-44
2024/02/29 05:58:07;;;;;;;226.82;64.90;;;;;;;;;;4983805;28;20257;-45
2024/02/29 06:00:33;;;;;;;223.57;64.30;;;;;;;;;;4990415;28;20184;-44
2024/02/29 06:02:59;;;;;;;225.02;64.05;;;;;;;;;;4988201;28;20528;-45
2024/02/29 06:05:25;;;;;;;223.40;63.93;;;;;;;;;;4988342;28;20188;-44
2024/02/29 06:07:50;;;;;;;228.90;67.60;;;;;;;;;;4988814;28;20404;-44
2024/02/29 06:10:19;;;;;;;223.10;64.43;;;;;;;;;;4980250;28;20228;-45
2024/02/29 06:12:45;;;;;;;223.07;64.07;;;;;;;;;;4972410;28;20479;-44
2024/02/29 06:15:11;;;;;;;231.77;71.80;;;;;;;;;;4989930;28;20181;-44
2024/02/29 06:17:37;;;;;;;223.17;63.77;;;;;;;;;;4988478;28;20247;-44
2024/02/29 06:20:06;;;;;;;222.68;62.55;;;;;;;;;;4986936;28;20416;-44
2024/02/29 06:22:32;;;;;;;222.27;63.95;;;;;;;;;;4985816;28;20189;-44
2024/02/29 06:24:57;;;;;;;225.25;65.03;;;;;;;;;;4987874;28;20182;-44
2024/02/29 06:27:23;;;;;;;224.07;62.97;;;;;;;;;;4982126;28;20199;-44
2024/02/29 06:29:50;;;;;;;222.53;64.03;;;;;;;;;;4993359;28;20412;-45
2024/02/29 06:32:16;;;;;;;224.52;63.85;;;;;;;;;;4992201;28;20468;-45
2024/02/29 06:34:42;;;;;;;223.30;64.38;;;;;;;;;;4990160;28;20173;-44
2024/02/29 06:37:08;;;;;;;225.77;64.70;;;;;;;;;;4988638;28;20178;-45
2024/02/29 06:39:34;;;;;;;225.68;64.93;;;;;;;;;;4979740;28;20414;-44
2024/02/29 06:42:00;;;;;;;222.37;63.30;;;;;;;;;;4993055;28;20198;-44
2024/02/29 06:44:27;;;;;;;227.82;68.78;;;;;;;;;;4985550;28;20508;-45
2024/02/29 06:46:53;;;;;;;226.07;67.45;;;;;;;;;;4992041;28;20657;-45
2024/02/29 06:49:23;;;;;;;227.37;68.83;;;;;;;;;;4990791;28;20193;-45
2024/02/29 06:51:49;;;;;;;230.07;68.90;;;;;;;;;;4988191;28;20527;-45
2024/02/29 06:54:15;;;;;;;228.40;67.75;;;;;;;;;;4982419;28;20623;-44
2024/02/29 06:56:41;;;;;;;227.95;66.93;;;;;;;;;;4990033;28;20181;-44
2024/02/29 06:59:06;;;;;;;226.63;66.97;;;;;;;;;;4985842;28;20187;-45
2024/02/29 07:01:32;;;;;;;229.23;66.97;;;;;;;;;;4986277;28;20957;-44
2024/02/29 07:03:59;;;;;;;228.50;67.20;;;;;;;;;;4984983;28;20768;-45
2024/02/29 07:06:25;;;;;;;229.02;66.13;;;;;;;;;;4983261;28;20457;-45
2024/02/29 07:08:52;;;;;;;230.02;68.15;;;;;;;;;;4977549;28;20179;-44
2024/02/29 07:11:19;;;;;;;226.85;65.60;;;;;;;;;;4985782;28;20272;-44
2024/02/29 07:13:46;;;;;;;229.13;67.38;;;;;;;;;;4983638;28;20254;-44
2024/02/29 07:16:13;;;;;;;229.60;67.28;;;;;;;;;;4989819;28;20180;-44
2024/02/29 07:18:39;;;;;;;227.48;65.97;;;;;;;;;;4985354;28;20184;-44
2024/02/29 07:21:05;;;;;;;229.40;68.30;;;;;;;;;;4983284;28;20181;-44
2024/02/29 07:23:31;;;;;;;230.07;68.85;;;;;;;;;;4989093;28;20458;-44
2024/02/29 07:25:57;;;;;;;230.00;68.50;;;;;;;;;;4992359;28;20215;-45
2024/02/29 07:28:23;;;;;;;230.13;68.20;;;;;;;;;;4990225;28;20190;-44
2024/02/29 07:30:49;;;;;;;231.57;69.50;;;;;;;;;;4989146;28;20212;-44
2024/02/29 07:33:15;;;;;;;227.50;66.60;;;;;;;;;;4977671;28;20958;-45
2024/02/29 07:35:41;;;;;;;232.17;67.90;;;;;;;;;;4990636;28;20848;-44
2024/02/29 07:38:07;;;;;;;231.97;69.37;;;;;;;;;;4990074;28;20414;-44
2024/02/29 07:40:33;;;;;;;229.57;67.30;;;;;;;;;;4992583;28;20429;-44
2024/02/29 07:43:00;;;;;;;231.40;67.50;;;;;;;;;;4993585;28;20447;-45
2024/02/29 07:45:26;;;;;;;232.45;68.88;;;;;;;;;;4992963;28;21009;-44
2024/02/29 07:47:52;;;;;;;229.80;67.70;;;;;;;;;;4993331;28;20251;-44
2024/02/29 07:50:19;;;;;;;231.25;67.57;;;;;;;;;;4991125;28;20915;-44
2024/02/29 07:52:45;;;;;;;233.88;69.70;;;;;;;;;;4993234;28;20447;-44
2024/02/29 07:55:14;;;;;;;240.32;75.60;;;;;;;;;;4993106;28;20177;-44
2024/02/29 07:57:40;;;;;;;235.77;70.70;;;;;;;;;;4993393;28;20168;-45
2024/02/29 08:00:07;;;;;;;236.23;71.65;;;;;;;;;;4989694;28;20185;-44
2024/02/29 08:02:33;;;;;;;235.88;70.95;;;;;;;;;;4973870;28;20641;-44
2024/02/29 08:04:59;;;;;;;237.87;71.77;;;;;;;;;;4989880;28;20213;-44
2024/02/29 08:07:25;;;;;;;237.98;71.57;;;;;;;;;;4979794;28;20456;-44
2024/02/29 08:09:51;;;;;;;241.23;74.30;;;;;;;;;;4993042;28;20188;-44
2024/02/29 08:12:17;;;;;;;237.93;71.60;;;;;;;;;;4987872;28;20209;-44
2024/02/29 08:14:47;;;;;;;239.35;73.68;;;;;;;;;;4990004;28;20411;-45
2024/02/29 08:17:13;;;;;;;239.50;72.93;;;;;;;;;;4988313;28;20303;-45
2024/02/29 08:19:39;;;;;;;237.20;71.27;;;;;;;;;;4981574;28;20255;-45
2024/02/29 08:22:05;;;;;;;239.75;71.28;;;;;;;;;;4989565;28;20452;-45
2024/02/29 08:24:31;;;;;;;237.57;69.77;;;;;;;;;;4988450;28;20207;-44
2024/02/29 08:26:57;;;;;;;239.83;75.33;;;;;;;;;;4975822;28;20420;-45
2024/02/29 08:29:22;;;;;;;241.37;75.70;;;;;;;;;;4979831;28;20449;-44
2024/02/29 08:31:50;;;;;;;241.60;72.83;;;;;;;;;;4976671;28;20555;-44
2024/02/29 08:34:16;;;;;;;241.02;73.28;;;;;;;;;;4984121;28;20424;-44
2024/02/29 08:36:42;;;;;;;243.17;74.83;;;;;;;;;;4974555;28;20229;-44
2024/02/29 08:39:08;;;;;;;240.82;73.93;;;;;;;;;;4984156;28;20413;-45
2024/02/29 08:41:34;;;;;;;240.93;74.20;;;;;;;;;;4982738;28;20185;-44
2024/02/29 08:44:00;;;;;;;242.13;75.13;;;;;;;;;;4980644;28;20862;-44
2024/02/29 08:46:26;;;;;;;240.63;74.37;;;;;;;;;;4981467;28;20825;-44
2024/02/29 08:48:52;;;;;;;240.63;74.22;;;;;;;;;;4978449;28;20417;-44
2024/02/29 08:51:18;;;;;;;243.37;75.67;;;;;;;;;;4984124;28;20249;-44
2024/02/29 08:53:44;;;;;;;245.23;78.30;;;;;;;;;;4980566;28;20498;-45
2024/02/29 08:56:10;;;;;;;243.47;74.03;;;;;;;;;;4989489;28;20899;-45
2024/02/29 08:58:35;;;;;;;245.90;78.47;;;;;;;;;;4986750;28;21048;-45
2024/02/29 09:01:02;;;;;;;241.83;73.17;;;;;;;;;;4984421;28;20849;-45
2024/02/29 09:03:28;;;;;;;244.25;75.15;;;;;;;;;;4984430;28;20470;-45
2024/02/29 09:05:54;;;;;;;244.67;75.10;;;;;;;;;;4991073;28;20207;-46
2024/02/29 09:08:20;;;;;;;244.05;75.60;;;;;;;;;;4991988;28;20412;-45
2024/02/29 09:10:46;;;;;;;244.83;76.17;;;;;;;;;;4992020;28;20203;-45
2024/02/29 09:13:12;;;;;;;250.20;81.57;;;;;;;;;;4991713;28;20836;-45
2024/02/29 09:15:40;;;;;;;245.70;77.90;;;;;;;;;;4992472;28;20408;-45
2024/02/29 09:18:06;;;;;;;247.25;79.07;;;;;;;;;;4991695;28;20406;-45
2024/02/29 09:20:32;;;;;;;247.40;78.55;;;;;;;;;;4991846;28;20173;-44
2024/02/29 09:22:58;;;;;;;247.83;80.40;;;;;;;;;;4991583;28;20640;-45
2024/02/29 09:25:24;;;;;;;251.30;82.45;;;;;;;;;;4991508;28;20412;-45
2024/02/29 09:27:50;;;;;;;253.17;84.07;;;;;;;;;;4985439;28;20179;-46
2024/02/29 09:30:16;;;;;;;255.37;88.97;;;;;;;;;;4991678;28;20418;-46
2024/02/29 09:32:43;;;;;;;250.63;82.23;;;;;;;;;;4991633;28;20989;-45
2024/02/29 09:35:10;;;;;;;253.20;83.00;;;;;;;;;;4991689;28;20411;-46
2024/02/29 09:37:35;;;;;;;253.03;84.10;;;;;;;;;;4991610;28;20437;-45
2024/02/29 09:40:02;;;;;;;253.00;86.27;;;;;;;;;;4991440;28;20827;-46
2024/02/29 09:42:28;;;;;;;254.20;88.17;;;;;;;;;;4991603;28;20432;-46
2024/02/29 09:44:54;;;;;;;250.97;83.43;;;;;;;;;;4991327;28;20823;-45
2024/02/29 09:47:22;;;;;;;247.45;79.43;;;;;;;;;;4991485;28;20989;-46
2024/02/29 09:49:49;;;;;;;254.10;86.70;;;;;;;;;;4991372;28;20589;-45
2024/02/29 09:52:15;;;;;;;246.77;78.30;;;;;;;;;;4991198;28;20216;-45
2024/02/29 09:54:41;;;;;;;245.07;78.00;;;;;;;;;;4991350;28;20174;-45
2024/02/29 09:57:08;;;;;;;245.27;77.80;;;;;;;;;;4991415;28;20823;-46
2024/02/29 09:59:34;;;;;;;247.40;81.15;;;;;;;;;;4991490;28;20186;-45
2024/02/29 10:02:00;;;;;;;246.80;79.10;;;;;;;;;;4991303;28;20665;-45
2024/02/29 10:04:26;;;;;;;245.23;78.07;;;;;;;;;;4994439;28;20196;-46
2024/02/29 10:06:53;;;;;;;247.43;80.90;;;;;;;;;;4995418;28;20184;-46
2024/02/29 10:09:21;;;;;;;246.05;78.43;;;;;;;;;;4995648;28;20420;-45
2024/02/29 10:11:48;;;;;;;243.23;75.05;;;;;;;;;;4995309;28;20204;-45
2024/02/29 10:14:26;;;;;;;244.85;78.18;;;;;;;;;;4995046;28;20260;-46
2024/02/29 10:16:54;;;;;;;244.70;77.05;;;;;;;;;;4989713;28;20287;-45
2024/02/29 10:19:21;;;;;;;244.48;77.20;;;;;;;;;;4995318;28;20235;-46
2024/02/29 10:21:47;;;;;;;245.65;80.22;;;;;;;;;;4994805;28;20288;-45
2024/02/29 10:24:13;;;;;;;245.25;79.93;;;;;;;;;;4995141;28;20196;-45
2024/02/29 10:26:39;;;;;;;247.47;82.33;;;;;;;;;;4988748;28;20181;-45
2024/02/29 10:29:05;;;;;;;246.37;82.23;;;;;;;;;;4978935;28;20468;-45
2024/02/29 10:31:31;;;;;;;246.55;80.20;;;;;;;;;;4994590;28;20457;-45
2024/02/29 10:33:57;;;;;;;244.23;78.00;;;;;;;;;;4994739;28;20267;-46
2024/02/29 10:36:23;;;;;;;247.07;80.97;;;;;;;;;;4994269;28;20408;-45
2024/02/29 10:38:50;;;;;;;246.17;78.73;;;;;;;;;;4994825;28;20436;-45
2024/02/29 10:41:17;;;;;;;248.70;80.72;;;;;;;;;;4994655;28;20502;-45
2024/02/29 10:43:46;;;;;;;244.95;74.68;;;;;;;;;;4994444;28;20201;-46
2024/02/29 10:46:14;;;;;;;245.32;78.40;;;;;;;;;;4994487;28;20223;-45
2024/02/29 10:48:46;;;;;;;245.07;78.75;;;;;;;;;;4994850;28;20401;-46
2024/02/29 10:51:35;;;;;;;243.80;76.28;;;;;;;;;;4994723;28;20332;-46
2024/02/29 10:54:07;;;;;;;243.32;75.47;;;;;;;;;;4991300;28;20666;-45
2024/02/29 10:56:36;;;;;;;243.93;75.80;;;;;;;;;;4994221;28;20170;-45
2024/02/29 10:59:03;;;;;;;241.75;73.18;;;;;;;;;;4994354;28;20248;-45
2024/02/29 11:01:30;;;;;;;243.32;76.95;;;;;;;;;;4994417;28;20260;-45
2024/02/29 11:03:56;;;;;;;247.80;81.97;;;;;;;;;;4994260;28;20181;-45
2024/02/29 11:06:23;;;;;;;243.43;76.73;;;;;;;;;;4994134;28;20259;-45
2024/02/29 11:08:50;;;;;;;245.30;78.55;;;;;;;;;;4994083;28;20416;-45
2024/02/29 11:11:20;;;;;;;243.70;77.55;;;;;;;;;;4994056;28;20704;-45
2024/02/29 11:13:46;;;;;;;243.65;76.47;;;;;;;;;;4993678;28;20267;-45
2024/02/29 11:16:14;;;;;;;243.55;75.85;;;;;;;;;;4992541;28;20187;-46
2024/02/29 11:18:41;;;;;;;244.13;74.90;;;;;;;;;;4993098;28;20660;-45
2024/02/29 11:21:07;;;;;;;244.32;79.25;;;;;;;;;;4994034;28;20182;-45
2024/02/29 11:23:35;;;;;;;242.77;75.15;;;;;;;;;;4994174;28;20197;-46
2024/02/29 11:26:01;;;;;;;241.98;75.72;;;;;;;;;;4992520;28;20180;-45
2024/02/29 11:28:32;;;;;;;245.02;80.10;;;;;;;;;;4972414;28;20320;-45
2024/02/29 11:31:08;;;;;;;242.88;78.78;;;;;;;;;;4985957;28;20212;-45
2024/02/29 11:33:34;;;;;;;240.50;73.90;;;;;;;;;;4987740;28;20311;-45
2024/02/29 11:36:00;;;;;;;245.82;80.28;;;;;;;;;;4991720;28;20255;-45
2024/02/29 11:38:26;;;;;;;247.57;82.55;;;;;;;;;;4991906;28;20183;-45
2024/02/29 11:40:51;;;;;;;240.27;70.70;;;;;;;;;;4993103;28;20180;-45
2024/02/29 11:43:18;;;;;;;243.00;76.83;;;;;;;;;;4993887;28;20440;-46
2024/02/29 11:45:45;;;;;;;244.55;78.50;;;;;;;;;;4991971;28;20423;-45
2024/02/29 11:48:11;;;;;;;243.93;80.10;;;;;;;;;;4980506;28;20185;-46
2024/02/29 11:50:37;;;;;;;246.15;83.32;;;;;;;;;;4987113;28;20906;-45
2024/02/29 11:53:04;;;;;;;244.75;81.55;;;;;;;;;;4993283;28;20210;-45
2024/02/29 11:55:30;;;;;;;242.15;75.47;;;;;;;;;;4977580;28;20176;-45
2024/02/29 11:57:57;;;;;;;244.80;80.20;;;;;;;;;;4991757;28;20173;-45
2024/02/29 12:00:23;;;;;;;241.45;75.55;;;;;;;;;;4993338;28;20709;-45
2024/02/29 12:02:50;;;;;;;242.00;75.22;;;;;;;;;;4993147;28;20236;-45
2024/02/29 12:05:16;;;;;;;244.32;77.63;;;;;;;;;;4992844;28;20544;-45
2024/02/29 12:07:42;;;;;;;242.67;76.37;;;;;;;;;;4993292;28;20187;-45
2024/02/29 12:10:10;;;;;;;239.90;70.93;;;;;;;;;;4993015;28;20407;-45
2024/02/29 12:12:37;;;;;;;239.20;70.68;;;;;;;;;;4992818;28;20298;-45
2024/02/29 12:15:03;;;;;;;242.32;75.10;;;;;;;;;;4992650;28;20549;-45
2024/02/29 12:17:32;;;;;;;242.20;77.15;;;;;;;;;;4992879;28;20171;-45
2024/02/29 12:19:58;;;;;;;241.63;76.70;;;;;;;;;;4992959;28;20189;-45
2024/02/29 12:22:25;;;;;;;242.77;77.67;;;;;;;;;;4992872;28;20569;-45
2024/02/29 12:24:51;;;;;;;240.13;72.93;;;;;;;;;;4992689;28;20451;-45
2024/02/29 12:27:17;;;;;;;239.73;72.83;;;;;;;;;;4985998;28;20208;-45
2024/02/29 12:29:44;;;;;;;241.55;75.72;;;;;;;;;;4992964;28;20412;-45
2024/02/29 12:32:11;;;;;;;240.45;72.93;;;;;;;;;;4992568;28;20212;-45
2024/02/29 12:34:37;;;;;;;238.48;70.55;;;;;;;;;;4992681;28;20679;-45
2024/02/29 12:37:03;;;;;;;239.10;74.15;;;;;;;;;;4992082;28;20694;-45
2024/02/29 12:39:29;;;;;;;234.90;69.73;;;;;;;;;;4992610;28;20365;-45
2024/02/29 12:41:55;;;;;;;236.93;68.87;;;;;;;;;;4992720;28;20439;-45
2024/02/29 12:44:21;;;;;;;240.20;73.60;;;;;;;;;;4992826;28;20451;-45
2024/02/29 12:46:55;;;;;;;239.27;70.22;;;;;;;;;;4992085;28;20191;-45
2024/02/29 12:49:21;;;;;;;239.80;70.72;;;;;;;;;;4992538;28;20173;-45
2024/02/29 12:51:48;;;;;;;241.00;74.95;;;;;;;;;;4992022;28;20586;-45
2024/02/29 12:54:14;;;;;;;243.55;77.40;;;;;;;;;;4988102;28;20180;-45
2024/02/29 12:56:40;;;;;;;239.37;74.37;;;;;;;;;;4991749;28;20173;-45
2024/02/29 12:59:07;;;;;;;239.63;72.97;;;;;;;;;;4992606;28;20935;-45
2024/02/29 13:01:35;;;;;;;241.75;75.03;;;;;;;;;;4992042;28;20491;-46
2024/02/29 13:04:01;;;;;;;239.15;73.47;;;;;;;;;;4992040;28;20176;-45
2024/02/29 13:06:27;;;;;;;240.37;73.70;;;;;;;;;;4991644;28;20683;-45
2024/02/29 13:08:53;;;;;;;241.52;75.38;;;;;;;;;;4991989;28;20422;-45
2024/02/29 13:11:19;;;;;;;240.27;75.60;;;;;;;;;;4992106;28;20204;-45
2024/02/29 13:13:45;;;;;;;236.87;70.70;;;;;;;;;;4991904;28;20447;-45
2024/02/29 13:16:10;;;;;;;240.88;73.93;;;;;;;;;;4991758;28;20776;-45
2024/02/29 13:18:36;;;;;;;242.27;77.27;;;;;;;;;;4991722;28;20185;-45
2024/02/29 13:21:02;;;;;;;245.10;81.83;;;;;;;;;;4991686;28;20777;-45
2024/02/29 13:23:28;;;;;;;242.77;75.77;;;;;;;;;;4991612;28;20475;-45
2024/02/29 13:25:55;;;;;;;241.77;76.57;;;;;;;;;;4991140;28;20471;-45
2024/02/29 13:28:20;;;;;;;242.32;77.85;;;;;;;;;;4985653;28;20420;-45
2024/02/29 13:30:48;;;;;;;242.40;78.57;;;;;;;;;;4990407;28;20211;-45
2024/02/29 13:33:16;;;;;;;243.38;77.70;;;;;;;;;;4991664;28;20451;-45
2024/02/29 13:35:42;;;;;;;245.98;83.32;;;;;;;;;;4991973;28;20176;-45
2024/02/29 13:38:08;;;;;;;244.20;77.63;;;;;;;;;;4990792;28;20177;-45
2024/02/29 13:40:34;;;;;;;239.57;73.77;;;;;;;;;;4991616;28;20459;-45
2024/02/29 13:43:00;;;;;;;237.53;71.33;;;;;;;;;;4991471;28;20498;-45
2024/02/29 13:45:31;;;;;;;242.97;78.30;;;;;;;;;;4991336;28;20506;-45
2024/02/29 13:47:57;;;;;;;243.40;76.90;;;;;;;;;;4991287;28;20958;-45
2024/02/29 13:50:23;;;;;;;241.70;77.07;;;;;;;;;;4991506;28;20210;-45
2024/02/29 13:52:49;;;;;;;242.90;76.17;;;;;;;;;;4991140;28;20534;-46
2024/02/29 13:55:15;;;;;;;242.97;76.40;;;;;;;;;;4991298;28;20907;-45
2024/02/29 13:57:41;;;;;;;243.23;78.40;;;;;;;;;;4991458;28;20411;-46
2024/02/29 14:00:09;;;;;;;240.07;74.87;;;;;;;;;;4991651;28;20438;-45